sensor_id;sensor_type;location;lat;lon;timestamp;pressure;altitude;pressure_sealevel;temperature;humidity
9525;BME280;15940;48.734;9.112;2023-02-03T00:00:26;97806.53;;;3.87;86.34
9525;BME280;15940;48.734;9.112;2023-02-03T00:02:56;97813.47;;;3.85;86.43
9525;BME280;15940;48.734;9.112;2023-02-03T00:05:27;97813.47;;;3.85;86.40
9525;BME280;15940;48.734;9.112;2023-02-03T00:07:55;97807.44;;;3.81;86.53
9525;BME280;15940;48.734;9.112;2023-02-03T00:10:24;97805.09;;;3.83;86.63
9525;BME280;15940;48.734;9.112;2023-02-03T00:12:51;97797.47;;;3.81;86.40
9525;BME280;15940;48.734;9.112;2023-02-03T00:15:21;97798.28;;;3.78;86.41
9525;BME280;15940;48.734;9.112;2023-02-03T00:17:48;97794.78;;;3.81;86.30
9525;BME280;15940;48.734;9.112;2023-02-03T00:20:15;97797.81;;;3.83;85.96
9525;BME280;15940;48.734;9.112;2023-02-03T00:22:46;97790.53;;;3.84;86.06
9525;BME280;15940;48.734;9.112;2023-02-03T00:25:18;97796.63;;;3.84;85.74
9525;BME280;15940;48.734;9.112;2023-02-03T00:27:46;97798.97;;;3.82;85.73
9525;BME280;15940;48.734;9.112;2023-02-03T00:30:13;97781.06;;;3.79;85.68
9525;BME280;15940;48.734;9.112;2023-02-03T00:32:40;97800.16;;;3.81;86.06
9525;BME280;15940;48.734;9.112;2023-02-03T00:35:07;97806.25;;;3.82;85.89
9525;BME280;15940;48.734;9.112;2023-02-03T00:37:37;97808.53;;;3.83;85.67
9525;BME280;15940;48.734;9.112;2023-02-03T00:40:06;97795.97;;;3.80;85.68
9525;BME280;15940;48.734;9.112;2023-02-03T00:42:35;97805.09;;;3.83;85.63
9525;BME280;15940;48.734;9.112;2023-02-03T00:45:02;97805.50;;;3.81;85.49
9525;BME280;15940;48.734;9.112;2023-02-03T00:47:30;97814.66;;;3.84;86.23
9525;BME280;15940;48.734;9.112;2023-02-03T00:49:59;97821.84;;;3.87;85.80
9525;BME280;15940;48.734;9.112;2023-02-03T00:52:29;97821.84;;;3.87;85.90
9525;BME280;15940;48.734;9.112;2023-02-03T00:54:59;97824.50;;;3.90;85.63
9525;BME280;15940;48.734;9.112;2023-02-03T00:58:01;97814.56;;;3.87;84.82
9525;BME280;15940;48.734;9.112;2023-02-03T01:00:37;97818.09;;;3.84;85.24
9525;BME280;15940;48.734;9.112;2023-02-03T01:03:05;97827.63;;;3.85;85.51
9525;BME280;15940;48.734;9.112;2023-02-03T01:05:32;97827.63;;;3.85;85.20
9525;BME280;15940;48.734;9.112;2023-02-03T01:07:59;97826.94;;;3.81;85.21
9525;BME280;15940;48.734;9.112;2023-02-03T01:10:26;97820.75;;;3.84;85.13
9525;BME280;15940;48.734;9.112;2023-02-03T01:12:54;97818.00;;;3.88;85.20
9525;BME280;15940;48.734;9.112;2023-02-03T01:15:22;97822.97;;;3.89;85.28
9525;BME280;15940;48.734;9.112;2023-02-03T01:17:49;97816.09;;;3.88;85.11
9525;BME280;15940;48.734;9.112;2023-02-03T01:20:16;97805.31;;;3.92;84.70
9525;BME280;15940;48.734;9.112;2023-02-03T01:22:46;97796.09;;;3.93;85.15
9525;BME280;15940;48.734;9.112;2023-02-03T01:25:17;97780.47;;;3.88;84.78
9525;BME280;15940;48.734;9.112;2023-02-03T01:27:44;97764.06;;;3.86;84.94
9525;BME280;15940;48.734;9.112;2023-02-03T01:30:11;97758.28;;;3.87;85.12
9525;BME280;15940;48.734;9.112;2023-02-03T01:32:40;97762.91;;;3.87;85.34
9525;BME280;15940;48.734;9.112;2023-02-03T01:35:07;97773.16;;;3.92;85.30
9525;BME280;15940;48.734;9.112;2023-02-03T01:37:34;97783.16;;;3.88;85.03
9525;BME280;15940;48.734;9.112;2023-02-03T01:40:01;97774.38;;;3.87;85.28
9525;BME280;15940;48.734;9.112;2023-02-03T01:42:32;97760.22;;;3.87;85.14
9525;BME280;15940;48.734;9.112;2023-02-03T01:44:59;97777.47;;;3.86;85.00
9525;BME280;15940;48.734;9.112;2023-02-03T01:47:30;97761.50;;;3.79;85.23
9525;BME280;15940;48.734;9.112;2023-02-03T01:50:10;97772.94;;;3.83;85.35
9525;BME280;15940;48.734;9.112;2023-02-03T01:52:41;97771.75;;;3.84;85.28
9525;BME280;15940;48.734;9.112;2023-02-03T01:55:12;97783.31;;;3.81;85.62
9525;BME280;15940;48.734;9.112;2023-02-03T01:57:44;97779.47;;;3.82;85.93
9525;BME280;15940;48.734;9.112;2023-02-03T02:00:13;97784.41;;;3.83;85.92
9525;BME280;15940;48.734;9.112;2023-02-03T02:02:45;97792.44;;;3.83;86.17
9525;BME280;15940;48.734;9.112;2023-02-03T02:05:21;97784.00;;;3.85;85.99
9525;BME280;15940;48.734;9.112;2023-02-03T02:07:51;97774.44;;;3.84;85.97
9525;BME280;15940;48.734;9.112;2023-02-03T02:10:26;97771.34;;;3.85;86.08
9525;BME280;15940;48.734;9.112;2023-02-03T02:12:55;97764.06;;;3.86;86.04
9525;BME280;15940;48.734;9.112;2023-02-03T02:15:30;97753.69;;;3.88;86.34
9525;BME280;15940;48.734;9.112;2023-02-03T02:18:42;97736.09;;;3.87;86.04
9525;BME280;15940;48.734;9.112;2023-02-03T02:21:47;97719.34;;;3.83;86.49
9525;BME280;15940;48.734;9.112;2023-02-03T02:30:55;97720.00;;;3.87;86.10
9525;BME280;15940;48.734;9.112;2023-02-03T02:34:01;97729.91;;;3.90;86.25
9525;BME280;15940;48.734;9.112;2023-02-03T02:36:42;97715.69;;;3.93;86.50
9525;BME280;15940;48.734;9.112;2023-02-03T02:39:21;97723.72;;;3.93;86.27
9525;BME280;15940;48.734;9.112;2023-02-03T02:41:55;97710.25;;;3.96;86.51
9525;BME280;15940;48.734;9.112;2023-02-03T02:44:35;97702.69;;;3.91;86.15
9525;BME280;15940;48.734;9.112;2023-02-03T02:47:11;97701.66;;;3.85;86.78
9525;BME280;15940;48.734;9.112;2023-02-03T02:49:47;97685.78;;;3.75;86.73
9525;BME280;15940;48.734;9.112;2023-02-03T02:52:17;97678.19;;;3.73;87.09
9525;BME280;15940;48.734;9.112;2023-02-03T02:54:51;97688.91;;;3.73;87.23
9525;BME280;15940;48.734;9.112;2023-02-03T02:57:21;97707.91;;;3.79;87.57
9525;BME280;15940;48.734;9.112;2023-02-03T02:59:50;97713.47;;;3.88;87.00
9525;BME280;15940;48.734;9.112;2023-02-03T03:02:19;97716.53;;;3.90;87.18
9525;BME280;15940;48.734;9.112;2023-02-03T03:04:48;97723.81;;;3.89;86.90
9525;BME280;15940;48.734;9.112;2023-02-03T03:07:22;97726.00;;;3.94;86.69
9525;BME280;15940;48.734;9.112;2023-02-03T03:09:54;97725.56;;;3.96;86.79
9525;BME280;15940;48.734;9.112;2023-02-03T03:12:28;97720.97;;;3.96;86.68
9525;BME280;15940;48.734;9.112;2023-02-03T03:15:02;97712.59;;;3.94;86.38
9525;BME280;15940;48.734;9.112;2023-02-03T03:17:40;97718.28;;;3.96;86.46
9525;BME280;15940;48.734;9.112;2023-02-03T03:20:14;97713.28;;;3.98;86.40
9525;BME280;15940;48.734;9.112;2023-02-03T03:22:47;97715.22;;;3.98;86.10
9525;BME280;15940;48.734;9.112;2023-02-03T03:25:19;97696.78;;;4.00;85.94
9525;BME280;15940;48.734;9.112;2023-02-03T03:27:50;97707.09;;;4.01;85.63
9525;BME280;15940;48.734;9.112;2023-02-03T03:30:24;97697.59;;;3.97;85.76
9525;BME280;15940;48.734;9.112;2023-02-03T03:32:54;97707.09;;;4.01;85.87
9525;BME280;15940;48.734;9.112;2023-02-03T03:35:30;97712.13;;;3.99;85.86
9525;BME280;15940;48.734;9.112;2023-02-03T03:38:10;97716.22;;;4.04;85.77
9525;BME280;15940;48.734;9.112;2023-02-03T03:40:43;97729.63;;;4.04;85.65
9525;BME280;15940;48.734;9.112;2023-02-03T03:43:19;97737.66;;;4.04;85.24
9525;BME280;15940;48.734;9.112;2023-02-03T03:45:53;97737.25;;;4.06;85.41
9525;BME280;15940;48.734;9.112;2023-02-03T03:48:27;97727.22;;;4.10;85.48
9525;BME280;15940;48.734;9.112;2023-02-03T03:51:07;97742.97;;;4.08;85.18
9525;BME280;15940;48.734;9.112;2023-02-03T03:53:39;97745.72;;;4.04;85.37
9525;BME280;15940;48.734;9.112;2023-02-03T03:56:16;97756.78;;;4.06;85.43
9525;BME280;15940;48.734;9.112;2023-02-03T03:58:47;97758.28;;;4.07;84.71
9525;BME280;15940;48.734;9.112;2023-02-03T04:01:18;97770.13;;;4.10;84.32
9525;BME280;15940;48.734;9.112;2023-02-03T04:03:51;97773.56;;;4.10;84.25
9525;BME280;15940;48.734;9.112;2023-02-03T04:06:21;97773.16;;;4.12;84.92
9525;BME280;15940;48.734;9.112;2023-02-03T04:08:49;97782.69;;;4.13;84.83
9525;BME280;15940;48.734;9.112;2023-02-03T04:11:16;97786.13;;;4.13;84.81
9525;BME280;15940;48.734;9.112;2023-02-03T04:13:57;97777.69;;;4.15;85.31
9525;BME280;15940;48.734;9.112;2023-02-03T04:16:24;97769.97;;;4.17;85.58
9525;BME280;15940;48.734;9.112;2023-02-03T04:18:52;97765.09;;;4.12;85.15
9525;BME280;15940;48.734;9.112;2023-02-03T04:21:21;97757.19;;;4.05;85.67
9525;BME280;15940;48.734;9.112;2023-02-03T04:23:48;97762.56;;;4.05;85.66
9525;BME280;15940;48.734;9.112;2023-02-03T04:26:17;97765.72;;;3.99;86.71
9525;BME280;15940;48.734;9.112;2023-02-03T04:28:44;97771.16;;;3.96;86.98
9525;BME280;15940;48.734;9.112;2023-02-03T04:31:13;97779.94;;;3.96;87.23
9525;BME280;15940;48.734;9.112;2023-02-03T04:33:40;97769.59;;;3.98;87.33
9525;BME280;15940;48.734;9.112;2023-02-03T04:36:07;97751.72;;;3.92;87.71
9525;BME280;15940;48.734;9.112;2023-02-03T04:38:36;97756.78;;;3.86;88.19
9525;BME280;15940;48.734;9.112;2023-02-03T04:41:04;97754.59;;;3.81;88.67
9525;BME280;15940;48.734;9.112;2023-02-03T04:43:31;97747.34;;;3.78;89.07
9525;BME280;15940;48.734;9.112;2023-02-03T04:45:58;97743.91;;;3.78;89.52
9525;BME280;15940;48.734;9.112;2023-02-03T04:48:26;97747.00;;;3.76;89.45
9525;BME280;15940;48.734;9.112;2023-02-03T04:50:53;97745.50;;;3.75;89.72
9525;BME280;15940;48.734;9.112;2023-02-03T04:53:20;97752.78;;;3.75;90.20
9525;BME280;15940;48.734;9.112;2023-02-03T04:55:48;97752.03;;;3.74;90.70
9525;BME280;15940;48.734;9.112;2023-02-03T04:58:15;97757.06;;;3.72;90.41
9525;BME280;15940;48.734;9.112;2023-02-03T05:00:42;97752.13;;;3.70;90.60
9525;BME280;15940;48.734;9.112;2023-02-03T05:03:09;97744.41;;;3.72;90.64
9525;BME280;15940;48.734;9.112;2023-02-03T05:05:36;97723.66;;;3.77;90.67
9525;BME280;15940;48.734;9.112;2023-02-03T05:08:03;97722.91;;;3.76;90.67
9525;BME280;15940;48.734;9.112;2023-02-03T05:10:32;97732.44;;;3.77;90.76
9525;BME280;15940;48.734;9.112;2023-02-03T05:13:00;97722.47;;;3.78;90.46
9525;BME280;15940;48.734;9.112;2023-02-03T05:15:29;97719.13;;;3.73;90.75
9525;BME280;15940;48.734;9.112;2023-02-03T05:17:56;97734.44;;;3.73;90.84
9525;BME280;15940;48.734;9.112;2023-02-03T05:20:37;97737.47;;;3.75;90.76
9525;BME280;15940;48.734;9.112;2023-02-03T05:23:04;97741.25;;;3.78;90.95
9525;BME280;15940;48.734;9.112;2023-02-03T05:25:31;97755.06;;;3.76;90.97
9525;BME280;15940;48.734;9.112;2023-02-03T05:28:00;97760.41;;;3.76;90.55
9525;BME280;15940;48.734;9.112;2023-02-03T05:30:29;97757.69;;;3.80;90.98
9525;BME280;15940;48.734;9.112;2023-02-03T05:32:56;97751.50;;;3.83;91.06
9525;BME280;15940;48.734;9.112;2023-02-03T05:35:24;97749.22;;;3.81;91.02
9525;BME280;15940;48.734;9.112;2023-02-03T05:37:51;97755.00;;;3.80;90.87
9525;BME280;15940;48.734;9.112;2023-02-03T05:40:18;97752.66;;;3.82;91.06
9525;BME280;15940;48.734;9.112;2023-02-03T05:43:05;97772.59;;;3.81;90.93
9525;BME280;15940;48.734;9.112;2023-02-03T05:45:33;97774.53;;;3.80;90.91
9525;BME280;15940;48.734;9.112;2023-02-03T05:47:59;97770.25;;;3.83;90.87
9525;BME280;15940;48.734;9.112;2023-02-03T05:50:32;97766.81;;;3.82;90.55
9525;BME280;15940;48.734;9.112;2023-02-03T05:52:59;97756.50;;;3.81;90.71
9525;BME280;15940;48.734;9.112;2023-02-03T05:55:30;97763.03;;;3.80;90.75
9525;BME280;15940;48.734;9.112;2023-02-03T05:58:00;97751.91;;;3.81;90.81
9525;BME280;15940;48.734;9.112;2023-02-03T06:00:29;97737.00;;;3.80;90.34
9525;BME280;15940;48.734;9.112;2023-02-03T06:03:14;97737.00;;;3.80;90.05
9525;BME280;15940;48.734;9.112;2023-02-03T06:05:42;97742.75;;;3.79;90.17
9525;BME280;15940;48.734;9.112;2023-02-03T06:08:13;97747.72;;;3.80;90.12
9525;BME280;15940;48.734;9.112;2023-02-03T06:10:42;97746.97;;;3.80;89.87
9525;BME280;15940;48.734;9.112;2023-02-03T06:13:14;97748.53;;;3.77;90.29
9525;BME280;15940;48.734;9.112;2023-02-03T06:15:45;97742.00;;;3.78;89.71
9525;BME280;15940;48.734;9.112;2023-02-03T06:18:13;97735.53;;;3.76;89.57
9525;BME280;15940;48.734;9.112;2023-02-03T06:20:40;97724.41;;;3.77;90.13
9525;BME280;15940;48.734;9.112;2023-02-03T06:23:07;97724.06;;;3.75;89.78
9525;BME280;15940;48.734;9.112;2023-02-03T06:25:34;97732.88;;;3.76;89.46
9525;BME280;15940;48.734;9.112;2023-02-03T06:28:01;97734.38;;;3.77;90.02
9525;BME280;15940;48.734;9.112;2023-02-03T06:30:28;97737.81;;;3.77;90.04
9525;BME280;15940;48.734;9.112;2023-02-03T06:32:57;97738.22;;;3.76;89.52
9525;BME280;15940;48.734;9.112;2023-02-03T06:35:24;97739.31;;;3.78;89.40
9525;BME280;15940;48.734;9.112;2023-02-03T06:37:51;97741.25;;;3.78;89.44
9525;BME280;15940;48.734;9.112;2023-02-03T06:40:18;97731.22;;;3.82;89.22
9525;BME280;15940;48.734;9.112;2023-02-03T06:42:45;97737.00;;;3.80;89.14
9525;BME280;15940;48.734;9.112;2023-02-03T06:45:20;97736.25;;;3.80;89.35
9525;BME280;15940;48.734;9.112;2023-02-03T06:47:48;97723.22;;;3.78;89.62
9525;BME280;15940;48.734;9.112;2023-02-03T06:50:17;97721.72;;;3.77;89.19
9525;BME280;15940;48.734;9.112;2023-02-03T06:52:44;97722.56;;;3.74;89.50
9525;BME280;15940;48.734;9.112;2023-02-03T06:55:13;97718.78;;;3.71;89.91
9525;BME280;15940;48.734;9.112;2023-02-03T06:57:51;97720.63;;;3.75;90.48
9525;BME280;15940;48.734;9.112;2023-02-03T07:00:19;97716.03;;;3.75;89.99
9525;BME280;15940;48.734;9.112;2023-02-03T07:02:53;97709.59;;;3.72;90.25
9525;BME280;15940;48.734;9.112;2023-02-03T07:05:22;97719.19;;;3.70;89.86
9525;BME280;15940;48.734;9.112;2023-02-03T07:07:50;97723.78;;;3.69;90.55
9525;BME280;15940;48.734;9.112;2023-02-03T07:10:20;97715.47;;;3.64;89.71
9525;BME280;15940;48.734;9.112;2023-02-03T07:12:47;97714.72;;;3.63;90.06
9525;BME280;15940;48.734;9.112;2023-02-03T07:15:19;97700.25;;;3.61;89.83
9525;BME280;15940;48.734;9.112;2023-02-03T07:17:47;97708.66;;;3.59;90.42
9525;BME280;15940;48.734;9.112;2023-02-03T07:20:25;97713.97;;;3.63;90.23
9525;BME280;15940;48.734;9.112;2023-02-03T07:22:55;97707.84;;;3.62;90.54
9525;BME280;15940;48.734;9.112;2023-02-03T07:25:24;97694.13;;;3.60;89.69
9525;BME280;15940;48.734;9.112;2023-02-03T07:27:52;97690.75;;;3.56;90.20
9525;BME280;15940;48.734;9.112;2023-02-03T07:30:23;97697.16;;;3.62;90.74
9525;BME280;15940;48.734;9.112;2023-02-03T07:32:51;97706.81;;;3.56;90.53
9525;BME280;15940;48.734;9.112;2023-02-03T07:35:19;97707.97;;;3.55;90.66
9525;BME280;15940;48.734;9.112;2023-02-03T07:37:47;97714.44;;;3.58;91.30
9525;BME280;15940;48.734;9.112;2023-02-03T07:40:15;97706.41;;;3.58;90.68
9525;BME280;15940;48.734;9.112;2023-02-03T07:42:46;97712.81;;;3.64;91.39
9525;BME280;15940;48.734;9.112;2023-02-03T07:45:17;97724.56;;;3.70;91.05
9525;BME280;15940;48.734;9.112;2023-02-03T07:47:44;97724.69;;;3.63;90.73
9525;BME280;15940;48.734;9.112;2023-02-03T07:50:13;97736.09;;;3.67;91.11
9525;BME280;15940;48.734;9.112;2023-02-03T07:52:40;97743.59;;;3.76;90.72
9525;BME280;15940;48.734;9.112;2023-02-03T07:55:09;97751.75;;;3.68;90.54
9525;BME280;15940;48.734;9.112;2023-02-03T07:57:36;97755.88;;;3.73;90.75
9525;BME280;15940;48.734;9.112;2023-02-03T08:00:13;97753.97;;;3.73;90.82
9525;BME280;15940;48.734;9.112;2023-02-03T08:02:46;97769.56;;;3.79;90.60
9525;BME280;15940;48.734;9.112;2023-02-03T08:05:13;97761.03;;;3.84;90.36
9525;BME280;15940;48.734;9.112;2023-02-03T08:07:41;97774.91;;;3.79;90.32
9525;BME280;15940;48.734;9.112;2023-02-03T08:10:11;97784.06;;;3.81;90.44
9525;BME280;15940;48.734;9.112;2023-02-03T08:12:42;97789.09;;;3.79;90.95
9525;BME280;15940;48.734;9.112;2023-02-03T08:15:12;97771.09;;;3.80;90.79
9525;BME280;15940;48.734;9.112;2023-02-03T08:17:40;97774.84;;;3.82;90.86
9525;BME280;15940;48.734;9.112;2023-02-03T08:20:15;97770.88;;;3.90;91.27
9525;BME280;15940;48.734;9.112;2023-02-03T08:22:43;97777.97;;;4.00;90.97
9525;BME280;15940;48.734;9.112;2023-02-03T08:25:14;97777.22;;;4.00;90.50
9525;BME280;15940;48.734;9.112;2023-02-03T08:27:41;97778.31;;;4.03;90.54
9525;BME280;15940;48.734;9.112;2023-02-03T08:30:12;97775.53;;;4.06;90.60
9525;BME280;15940;48.734;9.112;2023-02-03T08:32:40;97791.59;;;4.10;90.24
9525;BME280;15940;48.734;9.112;2023-02-03T08:35:08;97790.47;;;4.07;90.23
9525;BME280;15940;48.734;9.112;2023-02-03T08:37:35;97787.44;;;4.05;90.58
9525;BME280;15940;48.734;9.112;2023-02-03T08:40:11;97798.25;;;4.01;90.87
9525;BME280;15940;48.734;9.112;2023-02-03T08:42:40;97788.59;;;4.04;90.68
9525;BME280;15940;48.734;9.112;2023-02-03T08:45:09;97790.28;;;3.98;90.93
9525;BME280;15940;48.734;9.112;2023-02-03T08:47:39;97793.63;;;4.02;90.77
9525;BME280;15940;48.734;9.112;2023-02-03T08:50:08;97799.63;;;4.10;90.91
9525;BME280;15940;48.734;9.112;2023-02-03T08:52:35;97799.00;;;4.22;90.98
9525;BME280;15940;48.734;9.112;2023-02-03T08:55:03;97805.19;;;4.39;90.63
9525;BME280;15940;48.734;9.112;2023-02-03T08:57:35;97792.03;;;4.44;90.20
9525;BME280;15940;48.734;9.112;2023-02-03T09:00:09;97790.31;;;4.34;89.94
9525;BME280;15940;48.734;9.112;2023-02-03T09:02:36;97789.31;;;4.28;90.17
9525;BME280;15940;48.734;9.112;2023-02-03T09:05:04;97797.91;;;4.19;90.30
9525;BME280;15940;48.734;9.112;2023-02-03T09:07:31;97794.25;;;4.29;90.78
9525;BME280;15940;48.734;9.112;2023-02-03T09:10:00;97797.81;;;4.43;90.77
9525;BME280;15940;48.734;9.112;2023-02-03T09:12:27;97793.34;;;4.56;90.55
9525;BME280;15940;48.734;9.112;2023-02-03T09:14:58;97779.97;;;4.52;90.16
9525;BME280;15940;48.734;9.112;2023-02-03T09:17:26;97782.00;;;4.48;90.26
9525;BME280;15940;48.734;9.112;2023-02-03T09:19:53;97774.31;;;4.67;90.59
9525;BME280;15940;48.734;9.112;2023-02-03T09:22:20;97776.34;;;4.79;89.75
9525;BME280;15940;48.734;9.112;2023-02-03T09:24:51;97768.38;;;4.92;88.97
9525;BME280;15940;48.734;9.112;2023-02-03T09:27:18;97775.53;;;5.14;88.80
9525;BME280;15940;48.734;9.112;2023-02-03T09:29:48;97773.19;;;5.33;88.56
9525;BME280;15940;48.734;9.112;2023-02-03T09:32:16;97775.44;;;5.51;88.44
9525;BME280;15940;48.734;9.112;2023-02-03T09:34:44;97788.22;;;5.76;87.63
9525;BME280;15940;48.734;9.112;2023-02-03T09:37:14;97787.91;;;5.57;86.86
9525;BME280;15940;48.734;9.112;2023-02-03T09:39:41;97772.16;;;5.59;86.61
9525;BME280;15940;48.734;9.112;2023-02-03T09:45:48;97789.97;;;5.37;87.02
9525;BME280;15940;48.734;9.112;2023-02-03T09:48:21;97791.72;;;5.43;87.73
9525;BME280;15940;48.734;9.112;2023-02-03T09:50:51;97803.81;;;5.52;87.61
9525;BME280;15940;48.734;9.112;2023-02-03T09:53:26;97797.03;;;5.31;87.72
9525;BME280;15940;48.734;9.112;2023-02-03T09:55:55;97797.38;;;5.33;88.22
9525;BME280;15940;48.734;9.112;2023-02-03T09:58:27;97789.53;;;5.38;88.66
9525;BME280;15940;48.734;9.112;2023-02-03T10:01:03;97788.88;;;5.51;87.85
9525;BME280;15940;48.734;9.112;2023-02-03T10:03:45;97788.72;;;5.41;87.70
9525;BME280;15940;48.734;9.112;2023-02-03T10:06:26;97773.16;;;5.49;87.67
9525;BME280;15940;48.734;9.112;2023-02-03T10:09:23;97776.50;;;5.69;87.91
9525;BME280;15940;48.734;9.112;2023-02-03T10:12:20;97760.22;;;5.89;87.04
9525;BME280;15940;48.734;9.112;2023-02-03T10:15:48;97751.75;;;5.91;86.43
9525;BME280;15940;48.734;9.112;2023-02-03T10:18:23;97750.47;;;5.95;85.93
9525;BME280;15940;48.734;9.112;2023-02-03T10:20:57;97761.22;;;5.95;86.23
9525;BME280;15940;48.734;9.112;2023-02-03T10:23:32;97770.91;;;5.93;86.61
9525;BME280;15940;48.734;9.112;2023-02-03T10:26:07;97780.97;;;5.89;86.59
9525;BME280;15940;48.734;9.112;2023-02-03T10:28:39;97794.47;;;5.72;86.75
9525;BME280;15940;48.734;9.112;2023-02-03T10:31:17;97797.31;;;5.65;87.41
9525;BME280;15940;48.734;9.112;2023-02-03T10:33:46;97777.75;;;5.65;86.99
9525;BME280;15940;48.734;9.112;2023-02-03T10:36:20;97787.09;;;5.60;87.59
9525;BME280;15940;48.734;9.112;2023-02-03T10:38:57;97777.31;;;5.66;87.60
9525;BME280;15940;48.734;9.112;2023-02-03T10:41:30;97773.59;;;5.77;87.23
9525;BME280;15940;48.734;9.112;2023-02-03T10:43:57;97788.97;;;5.76;87.00
9525;BME280;15940;48.734;9.112;2023-02-03T10:46:33;97777.75;;;5.65;86.88
9525;BME280;15940;48.734;9.112;2023-02-03T10:49:01;97770.75;;;5.67;87.03
9525;BME280;15940;48.734;9.112;2023-02-03T10:51:36;97761.13;;;5.70;87.36
9525;BME280;15940;48.734;9.112;2023-02-03T10:54:30;97747.38;;;5.81;87.17
9525;BME280;15940;48.734;9.112;2023-02-03T10:57:04;97728.56;;;5.97;87.23
9525;BME280;15940;48.734;9.112;2023-02-03T10:59:35;97712.31;;;6.13;86.49
9525;BME280;15940;48.734;9.112;2023-02-03T11:02:09;97708.66;;;6.07;85.73
9525;BME280;15940;48.734;9.112;2023-02-03T11:04:37;97699.22;;;6.28;85.81
9525;BME280;15940;48.734;9.112;2023-02-03T11:07:22;97713.22;;;6.48;84.50
9525;BME280;15940;48.734;9.112;2023-02-03T11:09:50;97734.09;;;6.44;84.11
9525;BME280;15940;48.734;9.112;2023-02-03T11:12:18;97731.84;;;6.43;84.41
9525;BME280;15940;48.734;9.112;2023-02-03T11:14:51;97726.34;;;6.34;83.94
9525;BME280;15940;48.734;9.112;2023-02-03T11:17:24;97725.47;;;6.24;84.35
9525;BME280;15940;48.734;9.112;2023-02-03T11:20:12;97730.44;;;6.25;84.62
9525;BME280;15940;48.734;9.112;2023-02-03T11:22:55;97729.25;;;6.26;84.35
9525;BME280;15940;48.734;9.112;2023-02-03T11:25:38;97718.38;;;6.17;85.33
9525;BME280;15940;48.734;9.112;2023-02-03T11:28:11;97726.75;;;6.19;84.70
9525;BME280;15940;48.734;9.112;2023-02-03T11:30:42;97731.59;;;6.12;85.31
9525;BME280;15940;48.734;9.112;2023-02-03T11:33:20;97712.94;;;6.05;85.02
9525;BME280;15940;48.734;9.112;2023-02-03T11:35:54;97721.38;;;6.07;84.81
9525;BME280;15940;48.734;9.112;2023-02-03T11:38:33;97707.38;;;6.12;84.79
9525;BME280;15940;48.734;9.112;2023-02-03T11:41:03;97705.88;;;6.11;84.70
9525;BME280;15940;48.734;9.112;2023-02-03T11:43:30;97697.59;;;6.18;85.36
9525;BME280;15940;48.734;9.112;2023-02-03T11:46:02;97688.66;;;6.08;84.46
9525;BME280;15940;48.734;9.112;2023-02-03T11:48:38;97711.81;;;6.18;85.03
9525;BME280;15940;48.734;9.112;2023-02-03T11:51:21;97693.72;;;6.19;85.04
9525;BME280;15940;48.734;9.112;2023-02-03T11:54:16;97685.09;;;6.11;84.54
9525;BME280;15940;48.734;9.112;2023-02-03T11:57:17;97681.53;;;6.14;84.46
9525;BME280;15940;48.734;9.112;2023-02-03T12:00:02;97674.34;;;6.24;84.22
9525;BME280;15940;48.734;9.112;2023-02-03T12:03:28;97676.28;;;6.23;83.25
9525;BME280;15940;48.734;9.112;2023-02-03T12:06:22;97667.38;;;6.26;83.15
9525;BME280;15940;48.734;9.112;2023-02-03T12:09:17;97677.59;;;6.32;83.29
9525;BME280;15940;48.734;9.112;2023-02-03T12:12:18;97668.31;;;6.33;82.21
9525;BME280;15940;48.734;9.112;2023-02-03T12:15:03;97665.09;;;6.25;82.78
9525;BME280;15940;48.734;9.112;2023-02-03T12:20:46;97666.94;;;6.28;81.81
9525;BME280;15940;48.734;9.112;2023-02-03T12:23:33;97667.38;;;6.39;82.00
9525;BME280;15940;48.734;9.112;2023-02-03T12:26:19;97664.22;;;6.53;81.65
9525;BME280;15940;48.734;9.112;2023-02-03T12:28:59;97671.78;;;6.58;80.95
9525;BME280;15940;48.734;9.112;2023-02-03T12:31:34;97681.91;;;6.54;79.95
9525;BME280;15940;48.734;9.112;2023-02-03T12:34:21;97674.16;;;6.56;80.58
9525;BME280;15940;48.734;9.112;2023-02-03T12:36:56;97678.03;;;6.55;79.40
9525;BME280;15940;48.734;9.112;2023-02-03T12:39:32;97658.31;;;6.46;79.43
9525;BME280;15940;48.734;9.112;2023-02-03T12:42:10;97658.72;;;6.44;79.73
9525;BME280;15940;48.734;9.112;2023-02-03T12:44:59;97656.81;;;6.32;80.66
9525;BME280;15940;48.734;9.112;2023-02-03T12:47:34;97658.88;;;6.28;80.93
9525;BME280;15940;48.734;9.112;2023-02-03T12:50:16;97636.91;;;6.17;80.81
9525;BME280;15940;48.734;9.112;2023-02-03T12:52:50;97638.19;;;6.12;80.24
9525;BME280;15940;48.734;9.112;2023-02-03T12:55:27;97654.00;;;6.10;80.42
9525;BME280;15940;48.734;9.112;2023-02-03T12:58:06;97629.56;;;6.05;79.67
9525;BME280;15940;48.734;9.112;2023-02-03T13:00:44;97612.38;;;6.02;80.62
9525;BME280;15940;48.734;9.112;2023-02-03T13:03:21;97599.97;;;6.05;80.25
9525;BME280;15940;48.734;9.112;2023-02-03T13:06:07;97576.31;;;6.12;79.66
9525;BME280;15940;48.734;9.112;2023-02-03T13:08:45;97590.09;;;6.14;78.99
9525;BME280;15940;48.734;9.112;2023-02-03T13:11:27;97600.63;;;6.21;79.17
9525;BME280;15940;48.734;9.112;2023-02-03T13:14:19;97593.63;;;6.24;79.11
9525;BME280;15940;48.734;9.112;2023-02-03T13:17:00;97579.44;;;6.36;78.36
9525;BME280;15940;48.734;9.112;2023-02-03T13:19:42;97574.91;;;6.46;78.81
9525;BME280;15940;48.734;9.112;2023-02-03T13:22:13;97574.41;;;6.60;78.24
9525;BME280;15940;48.734;9.112;2023-02-03T13:24:44;97574.66;;;6.53;78.05
9525;BME280;15940;48.734;9.112;2023-02-03T13:27:39;97580.91;;;6.50;77.69
9525;BME280;15940;48.734;9.112;2023-02-03T13:30:59;97579.41;;;6.49;78.17
9525;BME280;15940;48.734;9.112;2023-02-03T13:34:00;97584.56;;;6.43;78.38
9525;BME280;15940;48.734;9.112;2023-02-03T13:40:15;97567.69;;;6.30;78.16
9525;BME280;15940;48.734;9.112;2023-02-03T13:42:50;97563.81;;;6.31;78.05
9525;BME280;15940;48.734;9.112;2023-02-03T13:45:26;97560.81;;;6.29;77.17
9525;BME280;15940;48.734;9.112;2023-02-03T13:48:12;97554.88;;;6.34;77.60
9525;BME280;15940;48.734;9.112;2023-02-03T13:50:41;97550.38;;;6.31;77.91
9525;BME280;15940;48.734;9.112;2023-02-03T13:53:16;97532.50;;;6.24;77.54
9525;BME280;15940;48.734;9.112;2023-02-03T13:55:57;97542.28;;;6.31;77.42
9525;BME280;15940;48.734;9.112;2023-02-03T13:58:30;97544.88;;;6.35;78.15
9525;BME280;15940;48.734;9.112;2023-02-03T14:03:52;97569.31;;;6.40;77.28
9525;BME280;15940;48.734;9.112;2023-02-03T14:06:59;97572.88;;;6.37;77.53
9525;BME280;15940;48.734;9.112;2023-02-03T14:12:57;97568.66;;;6.23;78.38
9525;BME280;15940;48.734;9.112;2023-02-03T14:15:32;97576.09;;;6.19;78.48
9525;BME280;15940;48.734;9.112;2023-02-03T14:18:33;97565.56;;;6.12;78.59